Capitol Logistics 440


KRFD
Chicago/Rockford International Airport
Rockford, Illinois, US
KSLC
Salt Lake City International Airport
Salt Lake City, Utah, US

Activity Log

Date Flight Route Aircraft Duration
No Flights Yet

Route Details

Aircraft Information
Primary: Boeing 757-200SF
Backup: Boeing 737-800BCF
Route Data
Distance: 1031nm
Sched. Duration: 2h 45m
Avg. Duration: 0h 00m (-245m)
Times Flown: 0
Recm'd Route: RFD COTON J128 DBQ ALO FOD DDY NORDK6
Planned Altitude: 36,000ft
Origin Wx: KRFD 221654Z 09007KT 1SM R01/4500VP6000FT -DZ BR OVC003 11/09 A3001 RMK AO2 SLP166 P0000 T01060089
Dest. Wx: KSLC 221654Z 34019KT 10SM FEW060 BKN080 BKN200 09/M07 A3009 RMK AO2 SLP168 T00941072 $
Notes:

Financial History
Total Freight: 0lbs
Average Load: 0lbs/flt
Fuel Used: 0lbs
Avg. Fuel Used: 0lbs/flt
Fuel Expense: $0
Avg. Fuel Expense: $0
Avg. Fuel Cost: $0/lbs
Total Gross Income: $0
Pilot Pay: $0
Total Expenses: $0
Total Revenue: $0
Average Revenue: $0